Time;durP1;ratioP1;P1;durP2;ratioP2;P2;SDS_P1;SDS_P2;PMS_P1;PMS_P2;Temp;Humidity;BMP_temperature;BMP_pressure;BME280_temperature;BME280_humidity;BME280_pressure;Samples;Min_cycle;Max_cycle;Signal;HPM_P1;HPM_P2
2022/02/17 00:04:41;;;;;;;3.40;2.00;;;;;;;6.78;70.14;97066.88;435774;1270;126892;-73
2022/02/17 00:14:47;;;;;;;3.00;2.00;;;;;;;6.75;70.30;97035.80;433144;1270;141168;-67
2022/02/17 00:24:53;;;;;;;2.20;1.80;;;;;;;6.70;70.52;97003.23;433026;1269;141333;-66
2022/02/17 00:34:59;;;;;;;2.40;2.20;;;;;;;6.54;70.69;96958.59;432896;1270;142732;-71
2022/02/17 00:45:05;;;;;;;3.40;2.60;;;;;;;6.21;71.15;96955.66;431431;1270;140698;-68
2022/02/17 00:55:12;;;;;;;3.00;2.50;;;;;;;6.15;71.78;96916.96;432573;1270;143654;-69
2022/02/17 01:05:18;;;;;;;4.80;3.00;;;;;;;6.22;72.03;96829.14;433464;1270;140928;-76
2022/02/17 01:15:24;;;;;;;3.90;2.10;;;;;;;6.43;72.21;96783.09;431506;1269;142055;-67
2022/02/17 01:25:30;;;;;;;2.50;1.80;;;;;;;6.67;72.05;96763.54;431328;1270;141447;-68
2022/02/17 01:35:36;;;;;;;2.30;1.90;;;;;;;6.76;72.61;96720.34;432273;1270;142995;-68
2022/02/17 01:45:42;;;;;;;2.40;2.20;;;;;;;6.81;73.15;96684.24;433578;1270;141473;-67
2022/02/17 01:55:50;;;;;;;2.80;2.60;;;;;;;6.90;73.43;96655.52;433260;1270;141733;-69
2022/02/17 02:05:56;;;;;;;2.50;2.30;;;;;;;6.97;73.89;96616.04;431488;1270;143261;-65
2022/02/17 02:16:04;;;;;;;1.80;1.70;;;;;;;6.90;75.06;96575.55;431610;1270;142376;-68
2022/02/17 02:26:10;;;;;;;2.30;2.00;;;;;;;6.72;76.53;96518.33;432683;1270;141798;-68
2022/02/17 02:36:16;;;;;;;2.40;1.50;;;;;;;6.71;77.63;96471.88;429763;1270;191218;-67
2022/02/17 02:46:35;;;;;;;1.30;1.20;;;;;;;6.87;78.31;96466.66;431995;1270;140945;-68
2022/02/17 02:56:41;;;;;;;1.20;1.20;;;;;;;7.00;78.73;96431.23;431077;1270;141694;-68
2022/02/17 03:06:47;;;;;;;1.20;1.10;;;;;;;7.11;78.74;96421.29;430263;1270;141793;-68
2022/02/17 03:16:52;;;;;;;1.80;1.40;;;;;;;7.29;78.99;96424.25;430947;1270;142041;-67
2022/02/17 03:26:58;;;;;;;1.50;1.40;;;;;;;7.21;79.23;96397.84;432293;1271;142054;-66
2022/02/17 03:37:05;;;;;;;2.40;1.70;;;;;;;7.10;79.75;96346.75;431389;1270;142696;-67
2022/02/17 03:47:11;;;;;;;1.80;1.70;;;;;;;7.11;80.28;96334.17;431779;1271;141312;-68
2022/02/17 03:57:17;;;;;;;1.90;1.80;;;;;;;7.18;80.02;96306.50;430557;1271;141716;-67
2022/02/17 04:07:22;;;;;;;1.90;1.80;;;;;;;7.31;79.66;96269.91;431121;1271;141753;-67
2022/02/17 04:17:33;;;;;;;1.10;0.90;;;;;;;7.46;79.45;96232.08;430726;1271;141488;-68
2022/02/17 04:27:40;;;;;;;1.40;1.30;;;;;;;7.77;79.66;96201.33;431467;1270;142154;-67
2022/02/17 04:37:47;;;;;;;1.70;1.10;;;;;;;8.12;78.95;96180.73;430817;1270;141577;-70
2022/02/17 04:47:54;;;;;;;2.00;1.20;;;;;;;8.16;79.65;96272.12;433321;1270;191987;-67
2022/02/17 04:58:00;;;;;;;0.10;0.10;;;;;;;7.84;80.18;96516.54;430624;1270;141752;-68
2022/02/17 05:08:07;;;;;;;0.80;0.20;;;;;;;6.89;77.64;96560.10;430597;1270;141499;-65
2022/02/17 05:18:13;;;;;;;0.10;0.10;;;;;;;6.12;77.73;96558.95;429438;1270;141472;-66
2022/02/17 05:28:18;;;;;;;1.40;0.20;;;;;;;5.65;77.84;96495.74;431135;1270;142729;-72
2022/02/17 05:38:24;;;;;;;1.70;1.10;;;;;;;5.37;78.68;96395.84;432269;1270;142048;-67
2022/02/17 05:48:30;;;;;;;5.20;2.50;;;;;;;5.17;79.14;96341.27;429979;1269;141417;-68
2022/02/17 05:58:36;;;;;;;2.30;1.40;;;;;;;4.80;79.76;96383.31;430337;1270;144265;-67
2022/02/17 06:08:42;;;;;;;0.60;0.60;;;;;;;4.57;79.99;96386.30;431022;1270;142780;-67
2022/02/17 06:18:48;;;;;;;2.10;1.30;;;;;;;4.48;80.54;96398.36;431032;1270;141184;-68
2022/02/17 06:28:53;;;;;;;4.10;1.50;;;;;;;4.48;80.69;96407.48;431146;1269;140731;-67
2022/02/17 06:38:59;;;;;;;3.50;1.70;;;;;;;4.48;80.53;96357.06;444995;1268;151768;-67
2022/02/17 06:49:05;;;;;;;2.80;1.60;;;;;;;4.55;80.72;96432.73;440493;1269;142546;-66
2022/02/17 06:59:11;;;;;;;3.30;1.00;;;;;;;4.48;81.02;96454.78;430451;1270;142005;-68
2022/02/17 07:09:17;;;;;;;5.50;1.50;;;;;;;4.42;80.90;96436.26;431359;1270;164661;-67
2022/02/17 07:19:23;;;;;;;3.50;1.80;;;;;;;4.43;81.34;96403.43;430489;1270;144167;-67
2022/02/17 07:29:30;;;;;;;6.20;3.00;;;;;;;4.54;81.37;96418.77;434548;1270;141799;-67
2022/02/17 07:39:36;;;;;;;6.90;3.60;;;;;;;4.69;81.20;96428.02;431988;1270;142558;-67
2022/02/17 07:49:42;;;;;;;5.90;3.40;;;;;;;4.76;81.44;96459.96;435053;1268;141609;-67
2022/02/17 07:59:48;;;;;;;8.30;3.30;;;;;;;4.84;81.39;96468.95;432426;1270;141145;-68
2022/02/17 08:09:55;;;;;;;10.10;3.90;;;;;;;4.94;81.75;96463.17;433707;1269;141892;-69
2022/02/17 08:20:01;;;;;;;5.30;2.00;;;;;;;5.10;81.85;96473.49;431168;1270;141396;-68
2022/02/17 08:30:09;;;;;;;6.50;2.50;;;;;;;5.38;81.85;96429.67;430754;1270;142579;-68
2022/02/17 08:40:15;;;;;;;3.50;2.10;;;;;;;6.14;81.24;96430.05;436974;1270;141501;-64
2022/02/17 08:50:21;;;;;;;3.90;1.90;;;;;;;6.57;80.08;96430.45;434946;1270;142205;-64
2022/02/17 09:00:27;;;;;;;7.50;2.20;;;;;;;6.81;79.75;96427.70;430052;1269;144926;-66
2022/02/17 09:10:33;;;;;;;5.20;2.50;;;;;;;9.28;77.69;96407.23;432238;1270;142807;-64
2022/02/17 09:20:39;;;;;;;2.70;1.70;;;;;;;9.89;74.21;96404.49;431738;1269;143075;-62
2022/02/17 09:30:45;;;;;;;3.40;1.70;;;;;;;8.91;73.96;96403.53;431829;1269;142170;-64
2022/02/17 09:40:52;;;;;;;3.80;1.40;;;;;;;8.77;73.66;96422.05;430443;1270;142199;-63
2022/02/17 09:50:57;;;;;;;2.10;1.10;;;;;;;8.78;73.47;96423.20;430208;1270;164719;-65
2022/02/17 10:01:03;;;;;;;3.00;1.50;;;;;;;8.96;72.79;96413.98;433033;1268;141093;-66
2022/02/17 10:11:27;;;;;;;2.50;1.30;;;;;;;9.09;71.91;96415.36;430568;1270;197066;-68
2022/02/17 10:21:35;;;;;;;2.50;0.90;;;;;;;8.90;70.38;96412.82;431595;1270;141918;-71
2022/02/17 10:31:41;;;;;;;2.20;1.20;;;;;;;9.14;68.03;96429.07;432104;1270;142319;-69
2022/02/17 10:41:50;;;;;;;4.90;1.20;;;;;;;9.49;65.87;96424.73;433988;1269;142272;-65
2022/02/17 10:52:03;;;;;;;4.30;1.30;;;;;;;9.26;64.45;96451.88;435162;1270;141811;-64
2022/02/17 11:02:09;;;;;;;4.40;0.80;;;;;;;9.29;62.17;96430.47;433007;1270;141132;-67
2022/02/17 11:12:17;;;;;;;7.10;1.80;;;;;;;8.99;61.66;96442.40;430962;1270;142172;-74
2022/02/17 11:22:21;;;;;;;;;;;;;;;8.54;62.61;96456.09;434383;1270;142814;-76
2022/02/17 11:32:28;;;;;;;4.20;1.30;;;;;;;8.36;62.35;96462.65;433789;1270;128387;-66
2022/02/17 11:42:36;;;;;;;4.10;2.30;;;;;;;8.33;62.24;96474.91;431640;1270;140754;-74
2022/02/17 11:52:40;;;;;;;;;;;;;;;8.23;63.08;96475.77;431808;1269;142242;-64
2022/02/17 12:02:46;;;;;;;6.00;1.70;;;;;;;8.16;62.53;96475.98;440831;1269;133189;-62
2022/02/17 12:12:52;;;;;;;6.10;1.50;;;;;;;8.61;61.61;96465.77;447082;1268;141257;-69
2022/02/17 12:23:06;;;;;;;4.20;1.30;;;;;;;8.88;60.00;96467.89;447647;1269;141741;-65
2022/02/17 12:33:16;;;;;;;4.00;1.60;;;;;;;8.40;61.14;96529.80;433893;1269;142136;-68
2022/02/17 12:43:30;;;;;;;5.30;1.80;;;;;;;7.37;65.03;96578.67;431219;1270;140441;-60
2022/02/17 12:53:52;;;;;;;3.20;1.60;;;;;;;6.94;66.66;96589.05;443552;1269;144756;-61
2022/02/17 13:03:58;;;;;;;4.50;1.20;;;;;;;6.97;67.02;96596.10;438929;1269;142344;-65
2022/02/17 13:14:06;;;;;;;3.30;1.00;;;;;;;7.07;66.43;96604.88;439705;1270;141669;-60
2022/02/17 13:24:14;;;;;;;2.20;0.90;;;;;;;6.89;66.69;96624.73;436955;1269;141606;-64
2022/02/17 13:34:22;;;;;;;3.00;2.00;;;;;;;6.70;67.53;96632.09;432090;1270;141503;-64
2022/02/17 13:44:32;;;;;;;2.70;1.10;;;;;;;6.53;68.11;96651.02;431046;1270;140441;-63
2022/02/17 13:54:56;;;;;;;5.10;1.80;;;;;;;6.39;68.52;96663.77;430772;1270;141526;-65
2022/02/17 14:05:07;;;;;;;5.10;1.50;;;;;;;6.30;69.15;96686.55;431704;1269;141339;-67
2022/02/17 14:15:15;;;;;;;3.30;1.20;;;;;;;6.08;70.48;96721.16;430970;1270;141004;-65
2022/02/17 14:25:20;;;;;;;8.20;1.90;;;;;;;5.79;71.68;96754.98;433016;1270;141197;-67
2022/02/17 14:35:27;;;;;;;2.50;1.10;;;;;;;5.44;72.75;96788.95;432257;1270;303036;-68
2022/02/17 14:45:33;;;;;;;4.10;1.80;;;;;;;5.21;73.64;96802.60;431365;1270;141130;-70
2022/02/17 14:55:39;;;;;;;2.70;1.20;;;;;;;5.09;74.29;96829.42;433820;1270;141401;-71
2022/02/17 15:05:50;;;;;;;3.80;1.90;;;;;;;4.99;75.14;96853.36;432622;1270;141043;-63
2022/02/17 15:15:58;;;;;;;3.80;2.10;;;;;;;4.90;75.55;96877.66;431855;1270;141360;-67
2022/02/17 15:26:04;;;;;;;1.50;1.00;;;;;;;4.76;75.90;96909.02;437153;1260;141074;-69
2022/02/17 15:36:10;;;;;;;2.90;1.80;;;;;;;4.63;76.56;96948.69;434638;1271;141600;-69
2022/02/17 15:46:16;;;;;;;5.50;2.10;;;;;;;4.50;77.46;96973.83;445204;1271;142489;-62
2022/02/17 15:56:22;;;;;;;4.10;1.80;;;;;;;4.36;78.76;96996.78;446173;1271;142254;-61
2022/02/17 16:06:28;;;;;;;2.10;1.10;;;;;;;4.25;78.83;97037.62;446489;1271;146246;-61
2022/02/17 16:16:34;;;;;;;1.80;1.00;;;;;;;4.13;78.60;97060.33;440185;1271;141569;-63
2022/02/17 16:26:40;;;;;;;0.40;0.30;;;;;;;4.04;78.71;97089.45;439139;1271;141050;-64
2022/02/17 16:36:46;;;;;;;1.40;1.30;;;;;;;4.02;78.55;97129.38;435958;1271;143711;-64
2022/02/17 16:46:54;;;;;;;1.40;0.60;;;;;;;3.95;78.57;97163.41;447078;1271;141695;-65
2022/02/17 16:56:59;;;;;;;;;;;;;;;3.75;78.30;97190.44;442714;1271;151581;-65
2022/02/17 17:07:05;;;;;;;2.20;1.10;;;;;;;3.68;77.86;97216.61;436455;1271;128373;-64
2022/02/17 17:17:11;;;;;;;1.30;1.20;;;;;;;3.68;78.21;97254.02;430359;1271;142206;-64
2022/02/17 17:27:17;;;;;;;2.10;1.20;;;;;;;3.62;78.63;97289.15;433441;1271;141635;-63
2022/02/17 17:37:23;;;;;;;2.00;1.70;;;;;;;3.56;79.20;97317.31;441720;1271;142202;-68
2022/02/17 17:47:29;;;;;;;3.50;2.10;;;;;;;3.60;79.60;97348.16;444961;1271;141992;-68
2022/02/17 17:57:35;;;;;;;2.70;1.60;;;;;;;3.78;79.19;97374.38;446366;1271;141948;-64
2022/02/17 18:07:41;;;;;;;5.20;2.50;;;;;;;3.92;79.14;97393.45;435810;1271;142392;-66
2022/02/17 18:17:47;;;;;;;2.90;1.60;;;;;;;3.97;78.93;97408.50;445392;1271;142300;-67
2022/02/17 18:27:53;;;;;;;6.60;2.30;;;;;;;3.98;78.91;97429.56;438931;1271;141782;-64
2022/02/17 18:37:59;;;;;;;3.70;2.50;;;;;;;4.01;78.42;97452.70;429767;1271;143212;-63
2022/02/17 18:48:06;;;;;;;2.20;1.20;;;;;;;3.99;78.10;97474.20;434185;1271;142217;-63
2022/02/17 18:58:12;;;;;;;3.00;1.50;;;;;;;3.87;77.32;97486.48;447027;1271;141528;-63
2022/02/17 19:08:19;;;;;;;1.50;0.90;;;;;;;3.72;77.64;97508.75;434875;1271;142275;-63
2022/02/17 19:18:30;;;;;;;1.40;0.90;;;;;;;3.53;78.23;97527.66;440171;1269;141380;-62
2022/02/17 19:28:37;;;;;;;3.80;0.90;;;;;;;3.47;78.37;97543.68;442037;1271;142368;-64
2022/02/17 19:38:43;;;;;;;0.60;0.60;;;;;;;3.23;78.92;97561.17;429847;1271;141404;-60
2022/02/17 19:48:49;;;;;;;0.90;0.70;;;;;;;2.81;78.76;97571.84;429364;1271;141996;-59
2022/02/17 19:58:55;;;;;;;3.90;1.40;;;;;;;2.61;79.32;97584.86;443274;1271;141668;-59
2022/02/17 20:09:01;;;;;;;1.20;1.10;;;;;;;2.62;80.01;97592.23;434933;1271;141820;-58
2022/02/17 20:19:07;;;;;;;1.60;1.40;;;;;;;2.66;80.42;97600.29;431182;1271;141740;-59
2022/02/17 20:29:14;;;;;;;2.50;2.30;;;;;;;2.69;80.83;97618.00;430441;1271;142283;-60
2022/02/17 20:39:20;;;;;;;4.00;2.30;;;;;;;2.74;81.24;97634.30;431829;1273;142430;-60
2022/02/17 20:59:49;;;;;;;4.00;1.40;;;;;;;2.91;81.54;97655.19;430114;1271;141475;-59
2022/02/17 21:09:55;;;;;;;3.70;1.30;;;;;;;3.00;81.27;97669.29;429340;1271;145168;-62
2022/02/17 21:20:02;;;;;;;2.60;1.40;;;;;;;3.04;80.93;97688.42;432038;1271;141110;-60
2022/02/17 21:30:09;;;;;;;2.90;1.40;;;;;;;3.09;80.72;97700.90;433762;1271;142039;-59
2022/02/17 21:40:16;;;;;;;3.30;2.10;;;;;;;3.14;80.56;97717.22;430578;1271;142690;-59
2022/02/17 21:50:22;;;;;;;5.90;1.60;;;;;;;3.19;80.05;97738.97;430019;1271;142275;-59
2022/02/17 22:00:28;;;;;;;3.70;1.40;;;;;;;3.22;79.81;97748.88;429639;1271;146025;-59
2022/02/17 22:10:34;;;;;;;4.00;1.60;;;;;;;3.23;79.70;97767.77;431098;1271;141942;-59
2022/02/17 22:20:42;;;;;;;6.50;2.30;;;;;;;3.25;79.49;97783.59;430495;1271;140916;-59
2022/02/17 22:30:48;;;;;;;4.40;1.80;;;;;;;3.28;79.37;97796.23;430639;1271;142507;-59
2022/02/17 22:40:54;;;;;;;6.90;2.40;;;;;;;3.27;78.95;97814.43;431236;1271;141667;-60
2022/02/17 22:51:00;;;;;;;4.40;1.50;;;;;;;3.29;78.75;97829.18;429572;1271;141794;-58
2022/02/17 23:01:06;;;;;;;7.60;1.40;;;;;;;3.31;78.64;97850.17;430649;1271;142140;-60
2022/02/17 23:11:12;;;;;;;7.30;2.00;;;;;;;3.31;78.21;97867.77;431248;1271;146263;-65
2022/02/17 23:21:20;;;;;;;5.50;2.20;;;;;;;3.33;78.05;97880.48;429453;1271;142108;-63
2022/02/17 23:31:28;;;;;;;7.10;3.00;;;;;;;3.28;77.79;97890.46;431227;1269;147774;-65
2022/02/17 23:41:35;;;;;;;4.40;1.50;;;;;;;3.26;77.37;97902.01;430579;1271;142517;-62
2022/02/17 23:51:43;;;;;;;10.20;2.00;;;;;;;3.26;76.82;97902.88;431169;1271;144623;-67
